createdAt,value
2018-10-17T00:00:57.747Z,15.20
2018-10-17T00:03:26.578Z,15.10
2018-10-17T00:05:55.657Z,15.00
2018-10-17T00:08:24.998Z,14.90
2018-10-17T00:10:53.582Z,14.90
2018-10-17T00:13:22.381Z,14.90
2018-10-17T00:15:51.169Z,14.80
2018-10-17T00:18:19.750Z,14.80
2018-10-17T00:20:48.379Z,14.80
2018-10-17T00:23:16.841Z,14.70
2018-10-17T00:25:45.042Z,14.60
2018-10-17T00:28:13.924Z,14.50
2018-10-17T00:30:42.549Z,14.50
2018-10-17T00:33:10.691Z,14.40
2018-10-17T00:35:38.834Z,14.30
2018-10-17T00:38:07.021Z,14.30
2018-10-17T00:40:35.213Z,14.30
2018-10-17T00:43:03.383Z,14.30
2018-10-17T00:45:31.454Z,14.30
2018-10-17T00:47:59.687Z,14.20
2018-10-17T00:50:27.850Z,14.20
2018-10-17T00:52:56.060Z,14.10
2018-10-17T00:55:24.253Z,14.10
2018-10-17T00:57:52.369Z,14.10
2018-10-17T01:00:20.489Z,14.10
2018-10-17T01:02:48.624Z,14.10
2018-10-17T01:05:16.887Z,14.00
2018-10-17T01:07:44.956Z,14.10
2018-10-17T01:10:13.124Z,14.00
2018-10-17T01:12:41.281Z,14.00
2018-10-17T01:15:09.490Z,13.90
2018-10-17T01:17:37.673Z,13.90
2018-10-17T01:20:06.769Z,13.90
2018-10-17T01:22:35.045Z,13.90
2018-10-17T01:25:03.483Z,13.80
2018-10-17T01:27:31.848Z,13.70
2018-10-17T01:30:00.560Z,13.60
2018-10-17T01:32:28.836Z,13.60
2018-10-17T01:34:57.174Z,13.60
2018-10-17T01:37:25.817Z,13.60
2018-10-17T01:39:54.053Z,13.60
2018-10-17T01:42:22.502Z,13.70
2018-10-17T01:44:51.174Z,13.70
2018-10-17T01:47:20.104Z,13.50
2018-10-17T01:49:50.157Z,13.50
2018-10-17T01:52:18.522Z,13.40
2018-10-17T01:54:46.802Z,13.40
2018-10-17T01:57:14.969Z,13.40
2018-10-17T01:59:43.114Z,13.30
2018-10-17T02:02:11.269Z,13.20
2018-10-17T02:04:39.412Z,13.20
2018-10-17T02:07:07.601Z,13.10
2018-10-17T02:09:35.762Z,13.10
2018-10-17T02:12:03.906Z,13.10
2018-10-17T02:14:32.089Z,13.00
2018-10-17T02:17:00.260Z,12.90
2018-10-17T02:19:28.405Z,12.90
2018-10-17T02:21:56.576Z,12.80
2018-10-17T02:24:24.749Z,12.80
2018-10-17T02:26:52.951Z,12.80
2018-10-17T02:29:21.137Z,12.90
2018-10-17T02:31:49.297Z,13.00
2018-10-17T02:34:17.459Z,13.00
2018-10-17T02:36:45.660Z,13.00
2018-10-17T02:39:13.833Z,13.00
2018-10-17T02:41:42.013Z,13.00
2018-10-17T02:44:10.177Z,12.80
2018-10-17T02:46:38.452Z,12.70
2018-10-17T02:49:06.652Z,12.70
2018-10-17T02:51:34.774Z,12.70
2018-10-17T02:54:02.893Z,12.60
2018-10-17T02:56:31.126Z,12.60
2018-10-17T02:58:59.285Z,12.60
2018-10-17T03:01:27.961Z,12.50
2018-10-17T03:03:56.157Z,12.50
2018-10-17T03:06:24.326Z,12.50
2018-10-17T03:08:52.474Z,12.50
2018-10-17T03:11:20.718Z,12.50
2018-10-17T03:13:48.903Z,12.50
2018-10-17T03:16:17.145Z,12.50
2018-10-17T03:18:45.310Z,12.40
2018-10-17T03:21:13.462Z,12.30
2018-10-17T03:23:41.636Z,12.30
2018-10-17T03:26:09.775Z,12.20
2018-10-17T03:28:37.959Z,12.10
2018-10-17T03:31:06.265Z,12.10
2018-10-17T03:33:34.378Z,12.10
2018-10-17T03:36:02.716Z,12.10
2018-10-17T03:38:30.810Z,12.10
2018-10-17T03:40:58.941Z,12.10
2018-10-17T03:43:27.405Z,12.00
2018-10-17T03:45:55.563Z,12.00
2018-10-17T03:48:23.776Z,12.00
2018-10-17T03:50:51.953Z,12.00
2018-10-17T03:53:20.221Z,12.00
2018-10-17T03:55:48.274Z,12.00
2018-10-17T03:58:16.479Z,12.00
2018-10-17T04:00:44.810Z,12.00
2018-10-17T04:03:13.153Z,11.90
2018-10-17T04:05:41.196Z,11.90
2018-10-17T04:08:09.350Z,12.00
2018-10-17T04:10:37.529Z,12.00
2018-10-17T04:13:05.671Z,12.00
2018-10-17T04:15:33.842Z,12.00
2018-10-17T04:18:02.030Z,12.10
2018-10-17T04:20:30.206Z,12.10
2018-10-17T04:22:58.353Z,12.10
2018-10-17T04:25:26.761Z,12.20
2018-10-17T04:27:56.377Z,12.10
2018-10-17T04:30:25.099Z,12.10
2018-10-17T04:32:53.350Z,12.10
2018-10-17T04:35:21.494Z,12.00
2018-10-17T04:37:49.665Z,12.00
2018-10-17T04:40:17.864Z,12.00
2018-10-17T04:42:45.993Z,12.00
2018-10-17T04:45:14.157Z,12.00
2018-10-17T04:47:42.477Z,11.90
2018-10-17T04:50:11.198Z,11.90
2018-10-17T04:52:40.002Z,12.00
2018-10-17T04:55:09.363Z,11.90
2018-10-17T04:57:37.602Z,11.90
2018-10-17T05:00:07.913Z,11.90
2018-10-17T05:02:36.292Z,11.80
2018-10-17T05:05:04.522Z,11.80
2018-10-17T05:07:32.635Z,11.70
2018-10-17T05:10:00.819Z,11.60
2018-10-17T05:12:29.054Z,11.60
2018-10-17T05:14:57.217Z,11.50
2018-10-17T05:17:25.973Z,11.50
2018-10-17T05:19:54.154Z,11.40
2018-10-17T05:22:22.310Z,11.40
2018-10-17T05:24:50.489Z,11.30
2018-10-17T05:27:18.689Z,11.30
2018-10-17T05:29:46.962Z,11.40
2018-10-17T05:32:15.045Z,11.60
2018-10-17T05:34:43.203Z,11.40
2018-10-17T05:37:11.439Z,11.40
2018-10-17T05:39:39.518Z,11.40
2018-10-17T05:42:07.653Z,11.40
2018-10-17T05:44:35.899Z,11.50
2018-10-17T05:47:04.230Z,11.50
2018-10-17T05:49:32.417Z,11.50
2018-10-17T05:52:00.598Z,11.50
2018-10-17T05:54:28.775Z,11.50
2018-10-17T05:56:56.962Z,11.50
2018-10-17T05:59:25.578Z,11.50
2018-10-17T06:01:54.146Z,11.40
2018-10-17T06:04:22.305Z,11.50
2018-10-17T06:06:50.485Z,11.50
2018-10-17T06:09:18.670Z,11.50
2018-10-17T06:11:46.810Z,11.50
2018-10-17T06:14:15.100Z,11.50
2018-10-17T06:16:43.694Z,11.40
2018-10-17T06:19:12.129Z,11.40
2018-10-17T06:21:40.513Z,11.30
2018-10-17T06:24:08.861Z,11.30
2018-10-17T06:26:37.643Z,11.30
2018-10-17T06:29:05.888Z,11.30
2018-10-17T06:31:33.996Z,11.40
2018-10-17T06:34:02.297Z,11.40
2018-10-17T06:36:30.385Z,11.40
2018-10-17T06:38:58.553Z,11.50
2018-10-17T06:41:26.717Z,11.50
2018-10-17T06:43:54.896Z,11.40
2018-10-17T06:46:23.065Z,11.40
2018-10-17T06:48:51.312Z,11.50
2018-10-17T06:51:19.516Z,11.60
2018-10-17T06:53:47.708Z,11.70
2018-10-17T06:56:15.797Z,11.80
2018-10-17T06:58:43.989Z,11.90
2018-10-17T07:01:12.268Z,12.00
2018-10-17T07:03:40.317Z,11.90
2018-10-17T07:06:08.505Z,12.00
2018-10-17T07:08:36.702Z,12.10
2018-10-17T07:11:05.483Z,12.20
2018-10-17T07:13:33.598Z,12.20
2018-10-17T07:16:01.756Z,12.30
2018-10-17T07:18:29.969Z,12.30
2018-10-17T07:20:58.133Z,12.30
2018-10-17T07:23:26.310Z,12.40
2018-10-17T07:25:54.462Z,12.50
2018-10-17T07:28:22.639Z,12.60
2018-10-17T07:30:50.882Z,12.60
2018-10-17T07:33:19.216Z,12.70
2018-10-17T07:35:47.502Z,12.80
2018-10-17T07:38:15.593Z,12.80
2018-10-17T07:40:43.761Z,12.90
2018-10-17T07:43:11.897Z,13.00
2018-10-17T07:45:40.088Z,13.00
2018-10-17T07:48:08.269Z,13.10
2018-10-17T07:50:36.321Z,13.20
2018-10-17T07:53:04.614Z,13.30
2018-10-17T07:55:32.797Z,13.40
2018-10-17T07:58:01.569Z,13.50
2018-10-17T08:00:29.769Z,13.60
2018-10-17T08:02:58.854Z,13.70
2018-10-17T08:05:27.029Z,13.90
2018-10-17T08:07:55.161Z,14.00
2018-10-17T08:10:23.374Z,14.20
2018-10-17T08:12:51.501Z,14.40
2018-10-17T08:15:19.722Z,14.50
2018-10-17T08:17:47.869Z,14.70
2018-10-17T08:20:16.034Z,14.80
2018-10-17T08:22:44.217Z,14.90
2018-10-17T08:25:13.099Z,15.00
2018-10-17T08:27:41.952Z,15.00
2018-10-17T08:30:10.662Z,15.20
2018-10-17T08:32:39.935Z,15.20
2018-10-17T08:35:08.365Z,15.30
2018-10-17T08:37:37.376Z,15.40
2018-10-17T08:40:05.939Z,15.60
2018-10-17T08:42:34.136Z,15.70
2018-10-17T08:45:02.372Z,15.90
2018-10-17T08:47:30.533Z,16.00
2018-10-17T08:49:58.694Z,16.10
2018-10-17T08:52:26.856Z,16.20
2018-10-17T08:54:55.049Z,16.30
2018-10-17T08:57:23.223Z,16.40
2018-10-17T08:59:51.399Z,16.50
2018-10-17T09:02:19.557Z,16.60
2018-10-17T09:04:47.725Z,16.70
2018-10-17T09:07:15.848Z,16.90
2018-10-17T09:09:44.017Z,16.90
2018-10-17T09:12:12.197Z,17.10
2018-10-17T09:14:40.525Z,17.20
2018-10-17T09:17:08.850Z,17.30
2018-10-17T09:19:37.208Z,17.40
2018-10-17T09:22:06.229Z,17.50
2018-10-17T09:24:33.891Z,17.50
2018-10-17T09:27:02.042Z,17.60
2018-10-17T09:29:30.213Z,17.70
2018-10-17T09:31:58.378Z,17.80
2018-10-17T09:34:26.495Z,17.80
2018-10-17T09:36:54.638Z,17.90
2018-10-17T09:39:22.831Z,18.00
2018-10-17T09:41:51.089Z,18.10
2018-10-17T09:44:19.182Z,18.10
2018-10-17T09:46:47.352Z,18.20
2018-10-17T09:49:15.519Z,18.30
2018-10-17T09:51:43.649Z,18.40
2018-10-17T09:54:11.837Z,18.40
2018-10-17T09:56:39.953Z,18.50
2018-10-17T09:59:08.109Z,18.60
2018-10-17T10:01:41.569Z,18.70
2018-10-17T10:04:09.748Z,18.80
2018-10-17T10:06:37.889Z,19.00
2018-10-17T10:09:07.647Z,19.10
2018-10-17T10:11:35.944Z,19.10
2018-10-17T10:14:04.151Z,19.10
2018-10-17T10:16:32.273Z,19.20
2018-10-17T10:19:00.414Z,19.40
2018-10-17T10:21:28.557Z,19.50
2018-10-17T10:23:56.999Z,19.40
2018-10-17T10:26:25.293Z,19.40
2018-10-17T10:28:53.471Z,19.50
2018-10-17T10:31:21.634Z,19.60
2018-10-17T10:33:50.473Z,19.70
2018-10-17T10:36:19.530Z,19.90
2018-10-17T10:38:47.694Z,20.00
2018-10-17T10:41:15.901Z,20.10
2018-10-17T10:43:44.143Z,20.10
2018-10-17T10:46:12.770Z,20.20
2018-10-17T10:48:41.023Z,20.20
2018-10-17T10:51:09.860Z,20.10
2018-10-17T10:53:38.049Z,20.10
2018-10-17T10:56:06.458Z,20.30
2018-10-17T10:58:34.665Z,20.40
2018-10-17T11:01:02.790Z,20.50
2018-10-17T11:03:30.967Z,20.70
2018-10-17T11:05:59.117Z,20.80
2018-10-17T11:08:27.273Z,20.90
2018-10-17T11:10:55.612Z,21.00
2018-10-17T11:13:23.738Z,21.10
2018-10-17T11:15:51.915Z,21.20
2018-10-17T11:18:20.103Z,21.30
2018-10-17T11:20:48.245Z,21.40
2018-10-17T11:23:16.459Z,21.50
2018-10-17T11:25:44.575Z,21.60
2018-10-17T11:28:12.726Z,21.70
2018-10-17T11:30:40.865Z,21.80
2018-10-17T11:33:09.096Z,21.90
2018-10-17T11:35:37.205Z,22.00
2018-10-17T11:38:05.478Z,22.10
2018-10-17T11:40:33.671Z,22.30
2018-10-17T11:43:01.732Z,22.40
2018-10-17T11:45:29.947Z,22.60
2018-10-17T11:47:58.100Z,22.70
2018-10-17T11:50:26.288Z,22.70
2018-10-17T11:52:54.480Z,22.80
2018-10-17T11:55:23.821Z,22.90
2018-10-17T11:57:52.025Z,23.00
2018-10-17T12:00:20.204Z,23.10
2018-10-17T12:02:48.345Z,23.20
2018-10-17T12:05:17.078Z,23.30
2018-10-17T12:07:44.838Z,23.30
2018-10-17T12:10:13.037Z,23.40
2018-10-17T12:12:41.235Z,23.50
2018-10-17T12:15:11.980Z,23.50
2018-10-17T12:17:40.249Z,23.60
2018-10-17T12:20:10.654Z,23.70
2018-10-17T12:22:39.375Z,23.80
2018-10-17T12:25:07.930Z,23.80
2018-10-17T12:27:36.306Z,24.00
2018-10-17T12:30:05.054Z,24.10
2018-10-17T12:32:33.158Z,24.20
2018-10-17T12:35:01.344Z,24.30
2018-10-17T12:37:29.412Z,24.40
2018-10-17T12:39:57.833Z,24.40
2018-10-17T12:42:25.805Z,24.40
2018-10-17T12:44:53.969Z,24.50
2018-10-17T12:47:22.102Z,24.60
2018-10-17T12:49:50.286Z,24.60
2018-10-17T12:52:18.418Z,24.80
2018-10-17T12:54:46.534Z,24.70
2018-10-17T12:57:14.725Z,24.90
2018-10-17T12:59:42.862Z,25.10
2018-10-17T13:02:11.037Z,25.40
2018-10-17T13:04:39.186Z,25.80
2018-10-17T13:07:07.406Z,26.20
2018-10-17T13:09:35.631Z,26.70
2018-10-17T13:12:03.758Z,27.10
2018-10-17T13:14:31.906Z,27.60
2018-10-17T13:17:00.128Z,28.10
2018-10-17T13:19:28.226Z,28.40
2018-10-17T13:21:56.358Z,28.80
2018-10-17T13:24:24.547Z,28.90
2018-10-17T13:26:52.781Z,28.90
2018-10-17T13:29:20.965Z,29.00
2018-10-17T13:31:49.121Z,29.20
2018-10-17T13:34:17.292Z,29.30
2018-10-17T13:36:45.466Z,29.10
2018-10-17T13:39:14.229Z,29.00
2018-10-17T13:41:42.376Z,29.00
2018-10-17T13:44:10.995Z,28.80
2018-10-17T13:46:39.580Z,28.80
2018-10-17T13:49:08.008Z,28.60
2018-10-17T13:51:36.134Z,28.60
2018-10-17T13:54:04.762Z,28.60
2018-10-17T13:56:32.969Z,28.60
2018-10-17T13:59:01.182Z,28.50
2018-10-17T14:01:29.296Z,28.40
2018-10-17T14:03:57.436Z,28.00
2018-10-17T14:06:25.575Z,27.70
2018-10-17T14:08:53.763Z,27.30
2018-10-17T14:11:21.879Z,27.40
2018-10-17T14:13:50.076Z,27.40
2018-10-17T14:16:18.238Z,27.40
2018-10-17T14:18:46.401Z,26.90
2018-10-17T14:21:14.662Z,26.70
2018-10-17T14:23:42.742Z,26.50
2018-10-17T14:26:10.926Z,26.30
2018-10-17T14:28:39.262Z,26.30
2018-10-17T14:31:07.425Z,26.30
2018-10-17T14:33:35.553Z,26.20
2018-10-17T14:36:03.750Z,26.10
2018-10-17T14:38:31.892Z,26.10
2018-10-17T14:41:00.012Z,26.10
2018-10-17T14:43:28.237Z,26.20
2018-10-17T14:45:56.374Z,25.90
2018-10-17T14:48:24.533Z,25.80
2018-10-17T14:50:52.711Z,25.70
2018-10-17T14:53:20.856Z,25.60
2018-10-17T14:55:49.053Z,25.70
2018-10-17T14:58:17.157Z,25.80
2018-10-17T15:00:45.345Z,25.90
2018-10-17T15:03:13.597Z,25.90
2018-10-17T15:05:41.650Z,25.90
2018-10-17T15:08:09.846Z,25.90
2018-10-17T15:10:38.113Z,25.60
2018-10-17T15:13:06.381Z,25.50
2018-10-17T15:15:39.011Z,25.50
2018-10-17T15:18:07.402Z,25.40
2018-10-17T15:20:35.550Z,25.40
2018-10-17T15:23:03.869Z,25.40
2018-10-17T15:25:32.133Z,25.40
2018-10-17T15:28:00.278Z,25.50
2018-10-17T15:30:28.405Z,25.50
2018-10-17T15:32:56.537Z,25.50
2018-10-17T15:35:24.684Z,25.40
2018-10-17T15:37:52.801Z,25.30
2018-10-17T15:40:20.985Z,25.10
2018-10-17T15:42:49.177Z,25.00
2018-10-17T15:45:17.480Z,24.80
2018-10-17T15:47:45.590Z,24.70
2018-10-17T15:50:13.762Z,24.60
2018-10-17T15:52:41.909Z,24.40
2018-10-17T15:55:10.342Z,24.30
2018-10-17T15:57:38.730Z,24.30
2018-10-17T16:00:09.081Z,24.20
2018-10-17T16:02:37.458Z,24.10
2018-10-17T16:05:07.788Z,24.00
2018-10-17T16:07:36.215Z,23.80
2018-10-17T16:10:05.157Z,23.70
2018-10-17T16:12:34.894Z,23.60
2018-10-17T16:15:03.426Z,23.50
2018-10-17T16:17:32.200Z,23.30
2018-10-17T16:20:00.417Z,23.20
2018-10-17T16:22:28.642Z,23.10
2018-10-17T16:24:56.778Z,23.00
2018-10-17T16:27:24.937Z,22.90
2018-10-17T16:29:53.351Z,22.80
2018-10-17T16:32:21.441Z,22.60
2018-10-17T16:34:49.617Z,22.50
2018-10-17T16:37:17.821Z,22.40
2018-10-17T16:39:45.949Z,22.40
2018-10-17T16:42:14.180Z,22.30
2018-10-17T16:44:42.526Z,22.20
2018-10-17T16:47:10.734Z,22.10
2018-10-17T16:49:38.972Z,21.90
2018-10-17T16:52:07.081Z,21.70
2018-10-17T16:54:35.275Z,21.70
2018-10-17T16:57:03.467Z,21.60
2018-10-17T16:59:31.613Z,21.50
2018-10-17T17:01:59.805Z,21.40
2018-10-17T17:04:28.025Z,21.40
2018-10-17T17:06:56.109Z,21.30
2018-10-17T17:09:24.282Z,21.30
2018-10-17T17:11:52.437Z,21.30
2018-10-17T17:14:20.589Z,21.20
2018-10-17T17:16:48.754Z,21.10
2018-10-17T17:19:16.914Z,21.00
2018-10-17T17:21:45.232Z,20.90
2018-10-17T17:24:13.598Z,20.90
2018-10-17T17:26:41.635Z,20.90
2018-10-17T17:29:09.792Z,20.80
2018-10-17T17:31:37.943Z,20.80
2018-10-17T17:34:06.122Z,20.70
2018-10-17T17:36:34.387Z,20.70
2018-10-17T17:39:02.494Z,20.60
2018-10-17T17:43:58.846Z,20.50
2018-10-17T17:46:26.998Z,20.40
2018-10-17T17:48:55.168Z,20.30
2018-10-17T17:51:23.516Z,20.30
2018-10-17T17:53:51.702Z,20.20
2018-10-17T17:56:19.912Z,20.20
2018-10-17T17:58:48.090Z,20.10
2018-10-17T18:01:16.242Z,20.00
2018-10-17T18:03:44.429Z,20.00
2018-10-17T18:06:12.588Z,20.00
2018-10-17T18:08:40.773Z,19.90
2018-10-17T18:11:18.762Z,19.80
2018-10-17T18:13:46.951Z,19.80
2018-10-17T18:16:15.138Z,19.70
2018-10-17T18:18:43.713Z,19.70
2018-10-17T18:21:11.934Z,19.60
2018-10-17T18:23:40.498Z,19.50
2018-10-17T18:26:08.939Z,19.50
2018-10-17T18:28:37.222Z,19.40
2018-10-17T18:31:05.309Z,19.40
2018-10-17T18:33:33.515Z,19.30
2018-10-17T18:36:01.701Z,19.20
2018-10-17T18:38:30.113Z,19.10
2018-10-17T18:40:58.296Z,19.10
2018-10-17T18:43:26.773Z,19.10
2018-10-17T18:45:54.888Z,19.00
2018-10-17T18:48:23.284Z,19.00
2018-10-17T18:50:51.505Z,19.00
2018-10-17T18:53:19.761Z,18.90
2018-10-17T18:55:47.926Z,18.90
2018-10-17T18:58:16.202Z,18.90
2018-10-17T19:00:44.390Z,18.80
2018-10-17T19:03:12.621Z,18.80
2018-10-17T19:05:40.977Z,18.70
2018-10-17T19:08:09.260Z,18.70
2018-10-17T19:10:37.429Z,18.60
2018-10-17T19:13:05.861Z,18.50
2018-10-17T19:15:34.173Z,18.40
2018-10-17T19:18:02.376Z,18.20
2018-10-17T19:20:30.521Z,18.10
2018-10-17T19:22:58.725Z,18.00
2018-10-17T19:25:26.894Z,17.80
2018-10-17T19:27:55.013Z,17.70
2018-10-17T19:30:23.248Z,17.60
2018-10-17T19:32:51.326Z,17.60
2018-10-17T19:35:19.492Z,17.60
2018-10-17T19:37:47.645Z,17.60
2018-10-17T19:40:15.837Z,17.60
2018-10-17T19:42:43.981Z,17.50
2018-10-17T19:45:12.180Z,17.50
2018-10-17T19:47:40.747Z,17.50
2018-10-17T19:50:09.370Z,17.50
2018-10-17T19:52:37.753Z,17.50
2018-10-17T19:55:07.045Z,17.50
2018-10-17T20:03:16.032Z,17.30
2018-10-17T20:05:44.101Z,17.20
2018-10-17T20:08:12.282Z,17.10
2018-10-17T20:10:40.449Z,17.10
2018-10-17T20:13:08.633Z,17.00
2018-10-17T20:15:36.804Z,17.10
2018-10-17T20:18:05.110Z,17.10
2018-10-17T20:20:33.299Z,17.10
2018-10-17T20:23:01.438Z,17.00
2018-10-17T20:25:29.555Z,16.90
2018-10-17T20:27:57.688Z,16.90
2018-10-17T20:30:25.821Z,16.80
2018-10-17T20:32:53.978Z,16.70
2018-10-17T20:35:22.110Z,16.70
2018-10-17T20:37:50.255Z,16.60
2018-10-17T20:40:18.392Z,16.50
2018-10-17T20:42:46.553Z,16.50
2018-10-17T20:45:14.725Z,16.50
2018-10-17T20:47:42.873Z,16.50
2018-10-17T20:50:11.098Z,16.50
2018-10-17T20:52:39.218Z,16.50
2018-10-17T20:55:07.385Z,16.50
2018-10-17T20:57:35.882Z,16.50
2018-10-17T21:00:04.268Z,16.40
2018-10-17T21:02:32.405Z,16.40
2018-10-17T21:05:00.562Z,16.20
2018-10-17T21:07:28.741Z,16.10
2018-10-17T21:09:56.881Z,16.10
2018-10-17T21:12:25.026Z,16.00
2018-10-17T21:14:53.209Z,16.00
2018-10-17T21:17:21.366Z,16.00
2018-10-17T21:19:49.514Z,16.00
2018-10-17T21:22:17.640Z,15.90
2018-10-17T21:24:46.095Z,15.90
2018-10-17T21:27:14.241Z,15.80
2018-10-17T21:29:42.401Z,15.80
2018-10-17T21:32:10.711Z,15.80
2018-10-17T21:34:38.991Z,15.70
2018-10-17T21:37:07.095Z,15.70
2018-10-17T21:39:35.249Z,15.60
2018-10-17T21:42:03.434Z,15.60
2018-10-17T21:44:31.588Z,15.50
2018-10-17T21:46:59.770Z,15.50
2018-10-17T21:49:27.947Z,15.50
2018-10-17T21:51:56.117Z,15.50
2018-10-17T21:54:24.271Z,15.40
2018-10-17T21:56:52.434Z,15.40
2018-10-17T21:59:20.620Z,15.50
2018-10-17T22:01:48.747Z,15.40
2018-10-17T22:04:16.901Z,15.40
2018-10-17T22:06:45.134Z,15.30
2018-10-17T22:09:13.507Z,15.10
2018-10-17T22:11:41.625Z,15.20
2018-10-17T22:14:09.910Z,15.20
2018-10-17T22:16:43.465Z,15.10
2018-10-17T22:19:11.783Z,15.10
2018-10-17T22:21:39.753Z,15.10
2018-10-17T22:24:07.933Z,15.10
2018-10-17T22:26:36.592Z,15.10
2018-10-17T22:29:04.878Z,15.10
2018-10-17T22:31:33.217Z,15.10
2018-10-17T22:34:01.333Z,15.10
2018-10-17T22:36:29.498Z,15.10
2018-10-17T22:38:57.605Z,15.10
2018-10-17T22:41:25.879Z,15.10
2018-10-17T22:43:54.016Z,15.00
2018-10-17T22:46:22.141Z,14.90
2018-10-17T22:48:50.364Z,15.00
2018-10-17T22:51:18.546Z,14.90
2018-10-17T22:53:46.701Z,14.90
2018-10-17T22:56:14.998Z,14.90
2018-10-17T22:58:43.049Z,14.90
2018-10-17T23:01:11.262Z,14.90
2018-10-17T23:03:39.429Z,15.00
2018-10-17T23:06:07.589Z,15.00
2018-10-17T23:08:35.769Z,15.10
2018-10-17T23:11:04.013Z,15.10
2018-10-17T23:13:32.241Z,15.10
2018-10-17T23:16:00.405Z,15.00
2018-10-17T23:18:28.561Z,14.90
2018-10-17T23:20:56.757Z,14.90
2018-10-17T23:23:24.897Z,14.90
2018-10-17T23:25:53.070Z,14.90
2018-10-17T23:28:21.269Z,14.90
2018-10-17T23:30:49.466Z,14.80
2018-10-17T23:33:17.720Z,14.80
2018-10-17T23:35:45.882Z,14.80
2018-10-17T23:38:14.623Z,14.80
2018-10-17T23:40:42.701Z,14.80
2018-10-17T23:43:11.061Z,14.70
2018-10-17T23:45:39.207Z,14.70
2018-10-17T23:48:08.222Z,14.70
2018-10-17T23:50:36.729Z,14.70
2018-10-17T23:53:04.870Z,14.60
2018-10-17T23:55:33.074Z,14.60
2018-10-17T23:58:01.213Z,14.50
